Time;durP1;ratioP1;P1;durP2;ratioP2;P2;SDS_P1;SDS_P2;PMS_P1;PMS_P2;Temp;Humidity;BMP_temperature;BMP_pressure;BME280_temperature;BME280_humidity;BME280_pressure;Samples;Min_cycle;Max_cycle;Signal;HPM_P1;HPM_P2
2021/12/08 00:00:55;;;;;;;3.50;1.30;;;19.70;57.10;;;;;;4479170;32;20190;-72
2021/12/08 00:03:23;;;;;;;2.63;0.90;;;19.70;57.10;;;;;;4481298;32;20141;-72
2021/12/08 00:05:49;;;;;;;2.95;0.90;;;19.70;57.10;;;;;;4481456;32;20564;-72
2021/12/08 00:08:18;;;;;;;4.50;1.20;;;19.60;57.10;;;;;;4480090;32;20155;-72
2021/12/08 00:13:29;;;;;;;2.00;0.90;;;19.60;57.10;;;;;;4466926;32;20145;-73
2021/12/08 00:16:05;;;;;;;2.92;0.98;;;19.60;57.10;;;;;;4480352;32;20129;-73
2021/12/08 00:18:33;;;;;;;3.47;1.10;;;19.60;57.20;;;;;;4481181;32;20129;-73
2021/12/08 00:21:01;;;;;;;2.83;0.98;;;19.50;57.20;;;;;;4479689;32;20125;-73
2021/12/08 00:23:29;;;;;;;3.50;1.08;;;19.50;57.20;;;;;;4481524;32;20121;-73
2021/12/08 00:25:55;;;;;;;2.80;0.95;;;19.50;57.20;;;;;;4452162;32;20566;-73
2021/12/08 00:28:22;;;;;;;2.45;0.80;;;19.50;57.20;;;;;;4467281;32;20195;-72
2021/12/08 00:30:52;;;;;;;2.30;0.93;;;19.50;57.20;;;;;;4462864;32;20243;-73
2021/12/08 00:33:19;;;;;;;2.65;0.73;;;19.50;57.20;;;;;;4477101;32;20405;-73
2021/12/08 00:35:48;;;;;;;2.47;0.80;;;19.40;57.20;;;;;;4477145;32;20155;-72
2021/12/08 00:38:17;;;;;;;3.92;0.95;;;19.40;57.20;;;;;;4463787;32;20259;-72
2021/12/08 00:40:43;;;;;;;3.35;1.15;;;19.40;57.20;;;;;;4465792;32;20141;-72
2021/12/08 00:43:10;;;;;;;2.75;1.00;;;19.40;57.30;;;;;;4463151;32;20179;-72
2021/12/08 00:45:36;;;;;;;3.10;1.10;;;19.40;57.30;;;;;;4465607;32;20211;-72
2021/12/08 00:48:03;;;;;;;1.50;0.73;;;19.40;57.30;;;;;;4463804;32;20129;-73
2021/12/08 00:50:32;;;;;;;2.25;0.90;;;19.30;57.30;;;;;;4463797;32;20219;-72
2021/12/08 00:52:59;;;;;;;3.25;0.98;;;19.30;57.30;;;;;;4465174;32;20131;-72
2021/12/08 00:55:27;;;;;;;2.13;0.93;;;19.30;57.30;;;;;;4463725;32;20137;-72
2021/12/08 00:57:54;;;;;;;3.08;0.80;;;19.30;57.40;;;;;;4464491;32;20538;-72
2021/12/08 01:00:36;;;;;;;2.50;0.80;;;19.30;57.40;;;;;;4462850;32;20144;-72
2021/12/08 01:03:04;;;;;;;3.40;0.82;;;19.30;57.40;;;;;;4477029;32;20133;-72
2021/12/08 01:05:35;;;;;;;3.22;0.88;;;19.20;57.40;;;;;;4464363;32;20122;-72
2021/12/08 01:08:01;;;;;;;2.70;0.93;;;19.20;57.40;;;;;;4462824;32;20238;-72
2021/12/08 01:10:28;;;;;;;4.05;1.00;;;19.20;57.40;;;;;;4464758;32;20242;-72
2021/12/08 01:12:55;;;;;;;2.28;0.70;;;19.20;57.40;;;;;;4463285;32;20739;-71
2021/12/08 01:15:25;;;;;;;1.50;0.70;;;19.20;57.40;;;;;;4465334;32;20160;-71
2021/12/08 01:17:52;;;;;;;2.55;1.02;;;19.10;57.40;;;;;;4463682;32;20181;-72
2021/12/08 01:20:18;;;;;;;2.25;0.82;;;19.20;57.50;;;;;;4464744;32;20255;-72
2021/12/08 01:22:45;;;;;;;5.13;1.13;;;19.10;57.40;;;;;;4464461;32;20113;-72
2021/12/08 01:25:11;;;;;;;2.88;0.93;;;19.10;57.40;;;;;;4468017;32;20481;-72
2021/12/08 01:27:37;;;;;;;2.50;0.88;;;19.10;57.50;;;;;;4465462;32;20652;-72
2021/12/08 01:30:07;;;;;;;2.67;0.98;;;19.10;57.50;;;;;;4463867;32;20282;-72
2021/12/08 01:32:33;;;;;;;1.00;0.60;;;19.10;57.50;;;;;;4479682;32;20222;-72
2021/12/08 01:34:59;;;;;;;2.72;1.00;;;19.10;57.50;;;;;;4478963;32;20861;-72
2021/12/08 01:37:26;;;;;;;1.60;0.63;;;19.00;57.40;;;;;;4466259;32;20616;-71
2021/12/08 01:39:52;;;;;;;2.83;0.70;;;19.00;57.50;;;;;;4465929;32;20140;-72
2021/12/08 01:42:27;;;;;;;2.85;1.10;;;19.00;57.50;;;;;;4479082;32;20137;-72
2021/12/08 01:47:37;;;;;;;3.30;1.00;;;19.00;58.50;;;;;;4478741;32;20195;-71
2021/12/08 01:50:05;;;;;;;2.65;0.80;;;19.00;57.50;;;;;;4479516;32;20113;-71
2021/12/08 01:52:31;;;;;;;2.22;0.85;;;19.00;57.50;;;;;;4479214;32;20124;-72
2021/12/08 01:54:57;;;;;;;1.33;0.63;;;19.00;57.50;;;;;;4452841;32;20233;-72
2021/12/08 01:57:24;;;;;;;2.75;0.80;;;18.90;57.50;;;;;;4466216;32;20144;-72
2021/12/08 01:59:50;;;;;;;2.28;0.80;;;18.90;57.50;;;;;;4477740;32;20143;-72
2021/12/08 02:02:16;;;;;;;1.38;0.70;;;18.90;57.50;;;;;;4466399;32;20251;-72
2021/12/08 02:04:42;;;;;;;2.42;0.70;;;18.90;57.60;;;;;;4478360;32;20113;-72
2021/12/08 02:07:08;;;;;;;3.17;1.02;;;18.90;57.60;;;;;;4480330;32;20125;-72
2021/12/08 02:09:34;;;;;;;2.10;0.80;;;18.90;57.60;;;;;;4477922;32;20136;-72
2021/12/08 02:12:00;;;;;;;2.85;1.02;;;18.90;57.60;;;;;;4465710;32;20129;-71
2021/12/08 02:14:26;;;;;;;2.13;0.73;;;18.80;57.50;;;;;;4468898;32;20074;-71
2021/12/08 02:16:54;;;;;;;1.90;0.80;;;18.80;57.50;;;;;;4481700;32;20149;-71
2021/12/08 02:19:21;;;;;;;1.80;0.70;;;18.80;57.60;;;;;;4483090;32;20259;-72
2021/12/08 02:21:52;;;;;;;1.58;0.63;;;18.80;57.60;;;;;;4481201;32;20242;-71
2021/12/08 02:24:20;;;;;;;3.03;0.60;;;18.80;57.50;;;;;;4483423;32;20125;-72
2021/12/08 02:26:50;;;;;;;1.65;0.80;;;18.80;57.60;;;;;;4442379;32;20121;-72
2021/12/08 02:29:32;;;;;;;1.13;0.65;;;18.70;57.50;;;;;;4468217;32;20144;-71
2021/12/08 02:48:28;;;;;;;2.05;0.63;;;18.70;57.60;;;;;;4464957;32;20145;-71
2021/12/08 02:50:55;;;;;;;1.58;0.75;;;18.70;57.60;;;;;;4465130;32;20136;-72
2021/12/08 02:53:21;;;;;;;2.67;0.70;;;18.70;57.60;;;;;;4478717;31;20148;-71
2021/12/08 02:55:48;;;;;;;1.95;0.70;;;18.60;57.60;;;;;;4465095;32;20117;-72
2021/12/08 02:58:15;;;;;;;1.55;0.55;;;18.60;57.60;;;;;;4466163;32;20186;-72
2021/12/08 03:00:55;;;;;;;0.85;0.43;;;18.60;57.60;;;;;;4465161;32;20145;-72
2021/12/08 03:03:22;;;;;;;1.45;0.60;;;18.60;57.60;;;;;;4478303;32;20141;-71
2021/12/08 03:05:48;;;;;;;2.10;0.70;;;18.60;57.60;;;;;;4465588;32;20126;-72
2021/12/08 03:08:14;;;;;;;1.50;0.70;;;18.60;57.60;;;;;;4477202;32;20109;-72
2021/12/08 03:10:44;;;;;;;2.22;0.90;;;18.60;57.70;;;;;;4465722;32;20136;-71
2021/12/08 03:13:10;;;;;;;2.03;0.70;;;18.60;57.60;;;;;;4464691;32;20179;-72
2021/12/08 03:15:37;;;;;;;0.98;0.57;;;18.50;57.60;;;;;;4478665;32;20575;-71
2021/12/08 03:18:03;;;;;;;1.73;0.70;;;18.50;57.60;;;;;;4464775;32;20153;-71
2021/12/08 03:20:40;;;;;;;1.85;0.70;;;18.50;57.60;;;;;;4465568;32;20141;-71
2021/12/08 03:23:11;;;;;;;1.50;0.70;;;18.50;57.60;;;;;;4465860;32;20137;-71
2021/12/08 03:25:41;;;;;;;2.13;0.70;;;18.50;57.70;;;;;;4463753;32;20137;-71
2021/12/08 03:28:22;;;;;;;1.92;0.85;;;18.50;57.60;;;;;;4465499;32;20137;-71
2021/12/08 03:31:00;;;;;;;1.25;0.63;;;18.50;57.60;;;;;;4468073;32;20140;-71
2021/12/08 03:33:26;;;;;;;1.02;0.60;;;18.50;57.60;;;;;;4468660;32;20129;-71
2021/12/08 03:35:52;;;;;;;2.08;0.50;;;18.50;57.60;;;;;;4482207;32;20078;-71
2021/12/08 03:38:20;;;;;;;1.70;0.70;;;18.50;57.60;;;;;;4479435;32;20152;-71
2021/12/08 03:40:50;;;;;;;1.40;0.65;;;18.40;57.60;;;;;;4468200;32;20504;-71
2021/12/08 03:43:16;;;;;;;2.90;0.50;;;18.40;57.60;;;;;;4480071;32;20319;-71
2021/12/08 03:45:47;;;;;;;1.92;0.60;;;18.40;57.60;;;;;;4467762;32;20121;-72
2021/12/08 03:48:47;;;;;;;1.73;0.70;;;18.40;57.60;;;;;;4467072;32;20113;-72
2021/12/08 03:51:14;;;;;;;1.85;0.73;;;18.40;57.60;;;;;;4480123;32;20231;-72
2021/12/08 03:53:40;;;;;;;1.58;0.60;;;18.40;57.70;;;;;;4481850;32;20144;-72
2021/12/08 03:56:06;;;;;;;2.63;0.80;;;18.40;57.70;;;;;;4465832;32;20135;-71
2021/12/08 03:58:33;;;;;;;2.05;0.63;;;18.40;57.70;;;;;;4481794;32;20125;-71
2021/12/08 04:00:59;;;;;;;1.90;0.57;;;18.30;57.70;;;;;;4479369;32;20117;-71
2021/12/08 04:03:29;;;;;;;1.60;0.43;;;18.30;57.70;;;;;;4467052;32;20246;-71
2021/12/08 04:05:58;;;;;;;1.35;0.40;;;18.30;58.70;;;;;;4481433;32;20149;-71
2021/12/08 04:08:53;;;;;;;1.45;0.70;;;18.30;57.70;;;;;;4466072;32;20153;-71
2021/12/08 04:11:20;;;;;;;1.73;0.60;;;18.40;57.80;;;;;;4481779;32;20141;-72
2021/12/08 04:13:53;;;;;;;1.88;0.50;;;18.30;57.80;;;;;;4466257;32;20273;-72
2021/12/08 04:16:24;;;;;;;1.20;0.50;;;18.30;57.70;;;;;;4480918;32;20159;-72
2021/12/08 04:18:50;;;;;;;3.25;1.00;;;18.30;57.80;;;;;;4480288;32;20287;-72
2021/12/08 04:21:17;;;;;;;1.10;0.52;;;18.30;57.80;;;;;;4479505;32;20145;-71
2021/12/08 04:23:44;;;;;;;0.98;0.60;;;18.30;57.80;;;;;;4467340;32;20230;-71
2021/12/08 04:26:23;;;;;;;2.20;0.85;;;18.30;58.10;;;;;;4479429;32;20137;-72
2021/12/08 04:28:50;;;;;;;1.33;0.70;;;18.20;57.80;;;;;;4466813;32;20132;-71
2021/12/08 04:31:20;;;;;;;0.95;0.40;;;18.20;57.80;;;;;;4466764;32;20137;-71
2021/12/08 04:33:52;;;;;;;0.90;0.40;;;18.20;57.80;;;;;;4478356;32;20117;-71
2021/12/08 04:36:20;;;;;;;1.40;0.40;;;18.20;57.90;;;;;;4480682;32;20159;-71
2021/12/08 04:38:57;;;;;;;0.88;0.40;;;18.20;57.90;;;;;;4478105;32;20129;-71
2021/12/08 04:41:33;;;;;;;2.30;0.70;;;18.20;57.90;;;;;;4467774;32;20141;-71
2021/12/08 04:44:11;;;;;;;1.90;0.70;;;18.20;57.90;;;;;;4480027;32;20184;-71
2021/12/08 04:52:13;;;;;;;1.15;0.60;;;18.10;57.90;;;;;;4479223;32;20139;-71
2021/12/08 05:06:46;;;;;;;1.52;0.75;;;18.10;58.00;;;;;;4447877;32;20121;-71
2021/12/08 05:08:41;;;;;;;1.02;0.38;;;18.10;58.00;;;;;;4471502;32;20129;-71
2021/12/08 05:11:13;;;;;;;1.17;0.40;;;18.10;59.00;;;;;;4480804;32;20656;-71
2021/12/08 05:13:41;;;;;;;2.20;0.70;;;18.10;58.10;;;;;;4479211;32;20121;-71
2021/12/08 05:16:08;;;;;;;1.95;0.63;;;18.10;58.00;;;;;;4480101;32;20510;-71
2021/12/08 05:18:43;;;;;;;0.70;0.40;;;18.00;58.10;;;;;;4480358;32;20136;-71
2021/12/08 05:21:41;;;;;;;0.68;0.38;;;18.10;58.10;;;;;;4478797;32;20113;-71
2021/12/08 05:24:14;;;;;;;1.10;0.45;;;18.00;58.10;;;;;;4466593;32;20147;-71
2021/12/08 05:27:11;;;;;;;0.45;0.32;;;18.00;58.10;;;;;;4465711;32;20247;-71
2021/12/08 05:29:42;;;;;;;1.35;0.47;;;18.00;58.10;;;;;;4467911;32;20246;-71
2021/12/08 05:32:09;;;;;;;1.90;0.50;;;18.00;58.10;;;;;;4479392;32;20168;-71
2021/12/08 05:34:36;;;;;;;0.63;0.47;;;18.00;58.20;;;;;;4478625;32;20259;-71
2021/12/08 05:37:05;;;;;;;0.85;0.50;;;18.00;58.20;;;;;;4466697;32;20251;-71
2021/12/08 05:39:32;;;;;;;0.88;0.40;;;17.90;58.10;;;;;;4479395;32;20144;-71
2021/12/08 05:42:06;;;;;;;0.85;0.40;;;18.00;58.20;;;;;;4479595;32;20251;-71
2021/12/08 05:44:32;;;;;;;0.52;0.47;;;18.00;58.20;;;;;;4480518;32;20129;-71
2021/12/08 05:47:00;;;;;;;1.23;0.50;;;17.90;58.20;;;;;;4465695;32;20490;-70
2021/12/08 05:49:27;;;;;;;1.75;0.55;;;17.90;58.30;;;;;;4483811;32;20164;-71
2021/12/08 05:51:55;;;;;;;0.70;0.40;;;18.00;58.30;;;;;;4481588;32;20121;-71
2021/12/08 05:54:30;;;;;;;0.75;0.50;;;18.00;58.30;;;;;;4483528;32;20143;-71
2021/12/08 05:56:57;;;;;;;0.70;0.40;;;17.90;58.30;;;;;;4469184;32;20665;-71
2021/12/08 05:59:24;;;;;;;1.30;0.30;;;17.90;58.30;;;;;;4468111;32;20144;-71
2021/12/08 06:02:01;;;;;;;0.50;0.38;;;17.90;58.30;;;;;;4483727;32;20141;-71
2021/12/08 06:04:29;;;;;;;1.85;0.50;;;17.90;58.30;;;;;;4481509;32;20120;-71
2021/12/08 06:06:56;;;;;;;1.00;0.50;;;17.90;58.30;;;;;;4456518;32;20269;-71
2021/12/08 06:09:24;;;;;;;1.95;0.43;;;17.90;58.30;;;;;;4468007;32;20579;-71
2021/12/08 06:11:51;;;;;;;0.98;0.50;;;17.90;58.30;;;;;;4482784;32;20282;-71
2021/12/08 06:14:19;;;;;;;1.17;0.55;;;17.90;58.40;;;;;;4481996;32;20140;-71
2021/12/08 06:16:47;;;;;;;0.85;0.40;;;17.90;58.40;;;;;;4481399;32;20259;-71
2021/12/08 06:19:15;;;;;;;1.02;0.50;;;17.80;58.30;;;;;;4483382;32;20138;-71
2021/12/08 06:21:41;;;;;;;0.82;0.40;;;17.80;58.30;;;;;;4480091;32;20133;-71
2021/12/08 06:24:11;;;;;;;1.27;0.45;;;17.80;58.30;;;;;;4469246;32;20188;-72
2021/12/08 06:26:39;;;;;;;1.00;0.45;;;17.80;58.40;;;;;;4481001;32;20147;-71
2021/12/08 06:29:08;;;;;;;1.25;0.40;;;17.80;58.30;;;;;;4455109;32;20129;-71
2021/12/08 06:31:38;;;;;;;1.52;0.43;;;17.80;58.30;;;;;;4482967;32;20526;-71
2021/12/08 06:34:06;;;;;;;0.63;0.38;;;17.80;58.40;;;;;;4479939;32;20136;-70
2021/12/08 06:36:40;;;;;;;0.77;0.50;;;17.80;58.40;;;;;;4482153;32;20139;-71
2021/12/08 06:39:16;;;;;;;1.08;0.40;;;17.80;58.40;;;;;;4479911;32;20129;-71
2021/12/08 06:41:47;;;;;;;0.93;0.40;;;17.80;58.40;;;;;;4468638;32;20128;-71
2021/12/08 06:44:21;;;;;;;1.25;0.40;;;17.80;58.50;;;;;;4482551;32;20120;-71
2021/12/08 06:46:48;;;;;;;0.90;0.43;;;17.80;58.50;;;;;;4481398;32;20129;-71
2021/12/08 06:49:17;;;;;;;0.77;0.40;;;17.80;58.50;;;;;;4481762;32;20203;-71
2021/12/08 06:51:53;;;;;;;1.25;0.43;;;17.80;58.50;;;;;;4466688;32;20139;-71
2021/12/08 06:54:38;;;;;;;1.65;0.55;;;17.70;58.40;;;;;;4482572;32;20149;-70
2021/12/08 06:57:18;;;;;;;1.15;0.40;;;17.70;58.50;;;;;;4468229;32;20147;-71
2021/12/08 06:59:56;;;;;;;1.35;0.52;;;17.70;58.50;;;;;;4466590;32;20183;-70
2021/12/08 07:05:30;;;;;;;1.05;0.45;;;17.70;58.50;;;;;;4481262;32;20454;-71
2021/12/08 07:08:01;;;;;;;1.55;0.50;;;17.70;58.50;;;;;;4481203;32;20136;-71
2021/12/08 07:10:35;;;;;;;0.90;0.40;;;17.70;58.50;;;;;;4482438;32;20202;-71
2021/12/08 07:13:06;;;;;;;;;;;17.70;58.50;;;;;;4467891;32;20140;-70
2021/12/08 07:15:39;;;;;;;1.30;0.45;;;17.70;58.50;;;;;;4482608;32;20024;-71
2021/12/08 07:18:37;;;;;;;2.47;0.65;;;17.60;58.60;;;;;;4481117;32;20130;-70
2021/12/08 07:21:04;;;;;;;1.42;0.40;;;17.60;58.50;;;;;;4480826;32;20112;-71
2021/12/08 07:23:36;;;;;;;1.58;0.50;;;17.60;58.60;;;;;;4482343;32;20287;-70
2021/12/08 07:26:09;;;;;;;1.77;0.52;;;17.60;58.60;;;;;;4480459;32;20594;-70
2021/12/08 07:28:35;;;;;;;1.63;0.52;;;17.60;58.60;;;;;;4468372;32;20117;-71
2021/12/08 07:31:09;;;;;;;0.82;0.50;;;17.60;58.60;;;;;;4481340;32;20117;-71
2021/12/08 07:33:37;;;;;;;0.52;0.30;;;17.60;58.60;;;;;;4466909;32;20147;-71
2021/12/08 07:36:07;;;;;;;0.98;0.40;;;17.60;58.60;;;;;;4481174;32;20601;-71
2021/12/08 07:38:33;;;;;;;0.63;0.35;;;17.60;58.60;;;;;;4466173;32;20133;-70
2021/12/08 07:41:15;;;;;;;0.70;0.40;;;17.60;58.60;;;;;;4468292;32;20128;-70
2021/12/08 07:43:49;;;;;;;1.25;0.43;;;17.60;58.60;;;;;;4479628;32;20141;-70
2021/12/08 07:46:43;;;;;;;1.63;0.55;;;17.60;58.60;;;;;;4480982;32;20125;-71
2021/12/08 07:49:15;;;;;;;1.40;0.60;;;17.60;58.60;;;;;;4481100;32;20143;-71
2021/12/08 07:51:49;;;;;;;1.20;0.38;;;17.60;58.70;;;;;;4480082;32;20255;-71
2021/12/08 07:54:15;;;;;;;;;;;17.60;58.70;;;;;;4468285;32;20145;-72
2021/12/08 07:56:46;;;;;;;1.25;0.50;;;17.50;58.60;;;;;;4480838;32;20035;-67
2021/12/08 07:59:15;;;;;;;1.15;0.60;;;17.50;58.70;;;;;;4480646;32;20121;-70
2021/12/08 08:01:45;;;;;;;1.83;0.55;;;17.50;58.40;;;;;;4481666;32;20133;-70
2021/12/08 08:04:16;;;;;;;2.22;0.40;;;17.50;58.10;;;;;;4479943;32;20602;-70
2021/12/08 08:06:44;;;;;;;2.40;0.70;;;17.50;58.30;;;;;;4481851;32;20128;-71
2021/12/08 08:09:17;;;;;;;1.17;0.60;;;17.40;58.50;;;;;;4488670;31;20178;-71
2021/12/08 08:11:47;;;;;;;0.97;0.50;;;17.40;58.60;;;;;;4492699;31;20148;-70
2021/12/08 08:14:18;;;;;;;2.05;0.70;;;17.40;58.80;;;;;;4467078;32;20190;-72
2021/12/08 08:16:45;;;;;;;1.30;0.60;;;17.40;58.80;;;;;;4482980;31;20129;-71
2021/12/08 08:19:15;;;;;;;1.05;0.55;;;17.40;58.80;;;;;;4482720;31;20146;-71
2021/12/08 08:21:48;;;;;;;7.00;0.70;;;17.50;58.90;;;;;;4494750;31;20139;-72
2021/12/08 08:24:15;;;;;;;2.28;0.60;;;17.50;58.90;;;;;;4497330;31;20271;-72
2021/12/08 08:26:42;;;;;;;1.85;0.60;;;17.40;58.80;;;;;;4490986;31;20160;-71
2021/12/08 08:30:52;;;;;;;3.25;0.77;;;17.50;59.00;;;;;;4577741;31;20099;-70
2021/12/08 08:33:20;;;;;;;2.20;0.50;;;17.50;59.00;;;;;;4575986;31;20111;-70
2021/12/08 08:35:50;;;;;;;1.30;0.50;;;17.50;59.10;;;;;;4562207;31;20699;-70
2021/12/08 08:38:22;;;;;;;1.23;0.60;;;17.50;59.30;;;;;;4578088;31;20282;-69
2021/12/08 08:41:00;;;;;;;2.17;0.50;;;17.50;59.30;;;;;;4548632;31;20273;-69
2021/12/08 08:43:30;;;;;;;1.77;0.50;;;17.50;59.30;;;;;;4577785;31;20143;-69
2021/12/08 08:46:13;;;;;;;3.90;0.80;;;17.50;59.50;;;;;;4549124;31;20146;-69
2021/12/08 08:48:55;;;;;;;2.58;0.80;;;17.50;60.10;;;;;;4561883;31;20149;-69
2021/12/08 08:51:25;;;;;;;2.88;0.75;;;17.50;60.50;;;;;;4577776;31;20189;-68
2021/12/08 08:53:54;;;;;;;3.58;0.57;;;17.50;60.20;;;;;;4576438;31;20310;-68
2021/12/08 08:56:30;;;;;;;4.70;0.73;;;17.50;60.10;;;;;;4562885;31;20142;-69
2021/12/08 08:59:02;;;;;;;2.05;0.73;;;17.60;60.20;;;;;;4562557;31;20115;-69
2021/12/08 09:01:37;;;;;;;2.38;0.65;;;17.70;60.10;;;;;;4561721;31;20197;-69
2021/12/08 09:04:14;;;;;;;2.08;0.77;;;17.80;60.00;;;;;;4577505;31;20123;-70
2021/12/08 09:06:45;;;;;;;1.70;0.73;;;17.90;59.90;;;;;;4572428;31;20174;-69
2021/12/08 09:09:17;;;;;;;3.50;0.90;;;18.10;59.60;;;;;;4574237;31;20284;-70
2021/12/08 09:11:51;;;;;;;5.43;1.43;;;18.20;59.50;;;;;;4561855;31;20094;-69
2021/12/08 09:14:17;;;;;;;3.88;1.10;;;18.30;59.10;;;;;;4560959;31;20255;-70
2021/12/08 09:16:51;;;;;;;3.10;0.98;;;18.40;58.80;;;;;;4561231;31;20083;-71
2021/12/08 09:19:25;;;;;;;17.63;1.60;;;18.50;58.60;;;;;;4559906;31;20184;-69
2021/12/08 09:21:58;;;;;;;1.92;0.90;;;18.60;58.50;;;;;;4560307;31;20127;-74
2021/12/08 09:24:39;;;;;;;3.50;0.90;;;18.70;58.30;;;;;;4575310;31;20091;-65
2021/12/08 09:27:09;;;;;;;6.57;1.83;;;18.90;58.10;;;;;;4575510;31;20135;-69
2021/12/08 09:29:46;;;;;;;5.47;1.08;;;19.00;57.50;;;;;;4575131;31;20246;-69
2021/12/08 09:32:45;;;;;;;5.15;0.85;;;19.10;57.20;;;;;;4573042;31;20615;-73
2021/12/08 09:35:24;;;;;;;3.58;1.00;;;19.20;57.00;;;;;;4574616;31;20463;-68
2021/12/08 09:38:04;;;;;;;5.45;1.13;;;19.30;56.70;;;;;;4546321;31;20481;-72
2021/12/08 09:40:42;;;;;;;4.72;0.98;;;19.40;56.70;;;;;;4555671;31;20150;-68
2021/12/08 09:43:13;;;;;;;5.57;1.20;;;19.50;56.60;;;;;;4564482;31;20496;-70
2021/12/08 09:45:56;;;;;;;5.95;1.45;;;19.60;56.30;;;;;;4562807;31;20150;-70
2021/12/08 09:48:27;;;;;;;4.07;0.93;;;19.70;56.00;;;;;;4563639;31;20634;-69
2021/12/08 09:50:54;;;;;;;3.33;1.08;;;19.80;55.80;;;;;;4537313;31;20211;-68
2021/12/08 09:53:20;;;;;;;6.82;1.25;;;19.80;55.70;;;;;;4547739;31;20151;-69
2021/12/08 09:55:48;;;;;;;4.60;1.23;;;19.80;55.70;;;;;;4554547;31;20278;-69
2021/12/08 09:58:15;;;;;;;4.53;1.00;;;19.80;55.80;;;;;;4539266;31;20143;-68
2021/12/08 10:00:44;;;;;;;5.18;1.23;;;19.80;55.80;;;;;;4549339;31;20473;-69
2021/12/08 10:03:13;;;;;;;7.15;0.93;;;19.90;56.80;;;;;;4549023;31;20167;-70
2021/12/08 10:05:42;;;;;;;5.35;0.90;;;19.80;55.80;;;;;;4548509;31;20212;-69
2021/12/08 10:08:09;;;;;;;4.75;1.50;;;19.90;55.90;;;;;;4562296;31;20127;-67
2021/12/08 10:10:37;;;;;;;3.90;1.48;;;19.90;55.70;;;;;;4534313;31;20185;-67
2021/12/08 10:13:04;;;;;;;4.45;0.90;;;20.00;55.70;;;;;;4564051;31;20236;-70
2021/12/08 10:15:31;;;;;;;3.78;1.00;;;20.10;55.50;;;;;;4534639;31;20137;-69
2021/12/08 10:17:58;;;;;;;4.45;1.02;;;20.10;55.20;;;;;;4563735;31;20139;-70
2021/12/08 10:20:38;;;;;;;2.33;0.75;;;20.30;55.20;;;;;;4563295;31;20091;-70
2021/12/08 10:23:30;;;;;;;5.03;1.25;;;20.30;54.80;;;;;;4547879;31;20178;-69
2021/12/08 10:25:58;;;;;;;3.58;0.90;;;20.50;54.70;;;;;;4550727;31;20214;-71
2021/12/08 10:28:36;;;;;;;3.13;1.13;;;20.60;54.30;;;;;;4562491;31;20136;-71
2021/12/08 10:31:15;;;;;;;4.90;1.13;;;20.70;54.10;;;;;;4562468;31;20135;-70
2021/12/08 10:34:28;;;;;;;3.60;1.08;;;20.80;53.80;;;;;;4561837;31;20157;-69
2021/12/08 10:37:00;;;;;;;3.97;1.33;;;20.90;53.70;;;;;;4560334;31;20139;-70
2021/12/08 10:39:34;;;;;;;3.78;0.80;;;21.00;53.30;;;;;;4547969;31;20150;-69
2021/12/08 10:42:23;;;;;;;5.00;1.05;;;21.10;53.10;;;;;;4561728;31;20346;-73
2021/12/08 10:45:02;;;;;;;6.70;1.50;;;21.10;53.00;;;;;;4560966;31;20269;-69
2021/12/08 10:47:38;;;;;;;6.35;1.10;;;21.20;52.90;;;;;;4561977;31;20587;-70
2021/12/08 10:55:35;;;;;;;3.47;0.73;;;21.40;52.70;;;;;;4561550;31;20167;-73
2021/12/08 10:58:01;;;;;;;4.53;0.90;;;21.40;52.60;;;;;;4545661;31;20134;-69
2021/12/08 11:00:34;;;;;;;5.30;0.95;;;21.40;52.60;;;;;;4522254;31;39680;-70
2021/12/08 11:03:03;;;;;;;4.20;1.30;;;21.40;52.60;;;;;;4499529;31;20105;-70
2021/12/08 11:05:39;;;;;;;3.65;0.85;;;21.50;52.70;;;;;;4498844;31;20152;-70
2021/12/08 11:08:11;;;;;;;3.08;0.80;;;21.50;52.80;;;;;;4498101;31;20101;-71
2021/12/08 11:10:53;;;;;;;4.47;0.90;;;21.40;52.80;;;;;;4499137;31;20136;-71
2021/12/08 11:13:24;;;;;;;2.35;0.80;;;21.30;53.00;;;;;;4499901;31;20156;-72
2021/12/08 11:16:00;;;;;;;2.25;0.65;;;21.20;53.30;;;;;;4495924;31;20136;-72
2021/12/08 11:18:29;;;;;;;3.70;0.73;;;21.10;53.50;;;;;;4496551;31;20337;-71
2021/12/08 11:20:59;;;;;;;2.53;0.85;;;21.10;53.70;;;;;;4484093;31;20085;-72
2021/12/08 11:23:40;;;;;;;2.90;1.33;;;21.00;53.90;;;;;;4495735;31;20117;-71
2021/12/08 11:26:33;;;;;;;3.30;0.93;;;20.90;54.10;;;;;;4496798;31;20142;-71
2021/12/08 11:29:06;;;;;;;2.10;0.77;;;20.90;54.40;;;;;;4484072;31;20152;-70
2021/12/08 11:31:43;;;;;;;4.85;0.80;;;20.80;54.40;;;;;;4507733;31;20167;-71
2021/12/08 11:34:21;;;;;;;4.10;0.90;;;20.70;54.40;;;;;;4496379;31;20426;-65
2021/12/08 11:36:51;;;;;;;3.20;0.80;;;20.70;54.50;;;;;;4498809;31;20566;-72
2021/12/08 11:39:39;;;;;;;2.35;0.60;;;20.60;54.50;;;;;;4496405;31;20156;-72
2021/12/08 11:42:14;;;;;;;3.33;0.80;;;20.60;54.70;;;;;;4496404;31;20624;-71
2021/12/08 11:44:44;;;;;;;3.28;0.80;;;20.50;54.70;;;;;;4496839;31;20143;-72
2021/12/08 11:47:15;;;;;;;2.00;0.90;;;20.60;54.80;;;;;;4497717;31;20151;-74
2021/12/08 11:49:46;;;;;;;2.90;0.90;;;20.60;54.80;;;;;;4497886;31;20677;-74
2021/12/08 11:52:19;;;;;;;2.17;0.77;;;20.60;54.80;;;;;;4507343;31;20725;-73
2021/12/08 11:55:02;;;;;;;2.25;0.80;;;20.60;54.80;;;;;;4497137;31;20144;-74
2021/12/08 11:57:30;;;;;;;4.20;0.97;;;20.60;54.80;;;;;;4496840;31;20179;-71
2021/12/08 12:00:00;;;;;;;1.65;0.60;;;20.60;54.80;;;;;;4501275;31;20631;-71
2021/12/08 12:02:53;;;;;;;4.25;0.80;;;20.60;54.90;;;;;;4496216;31;20128;-70
2021/12/08 12:05:22;;;;;;;3.10;0.95;;;20.70;55.00;;;;;;4506062;31;20162;-72
2021/12/08 12:07:48;;;;;;;2.72;0.65;;;20.60;54.90;;;;;;4508067;31;20132;-70
2021/12/08 12:10:18;;;;;;;1.67;0.80;;;20.60;55.00;;;;;;4482025;31;20129;-72
2021/12/08 12:12:44;;;;;;;2.88;0.70;;;20.70;55.00;;;;;;4509937;31;20302;-68
2021/12/08 12:15:14;;;;;;;3.40;0.88;;;20.70;54.90;;;;;;4510302;31;20193;-72
2021/12/08 12:17:40;;;;;;;2.88;0.60;;;20.70;55.00;;;;;;4513011;31;20569;-72
2021/12/08 12:20:24;;;;;;;1.70;0.73;;;20.60;54.90;;;;;;4511490;31;20147;-69
2021/12/08 12:23:28;;;;;;;5.50;0.98;;;20.60;55.10;;;;;;4497285;31;20151;-70
2021/12/08 12:26:14;;;;;;;4.13;0.70;;;20.60;55.20;;;;;;4512309;31;20656;-72
2021/12/08 12:29:01;;;;;;;5.70;0.68;;;20.60;55.20;;;;;;4507673;31;20494;-71
2021/12/08 12:31:54;;;;;;;2.03;0.80;;;20.60;55.40;;;;;;4512703;31;20151;-69
2021/12/08 12:34:31;;;;;;;2.15;0.60;;;20.60;55.40;;;;;;4513447;31;20398;-68
2021/12/08 12:36:59;;;;;;;2.55;0.90;;;20.50;55.30;;;;;;4512085;31;20143;-70
2021/12/08 12:39:27;;;;;;;2.03;1.00;;;20.50;55.30;;;;;;4512242;31;20280;-69
2021/12/08 12:42:10;;;;;;;4.97;0.55;;;20.50;55.30;;;;;;4512640;31;20460;-69
2021/12/08 12:44:35;;;;;;;2.80;0.77;;;20.40;55.20;;;;;;4511371;31;20146;-69
2021/12/08 12:47:05;;;;;;;3.88;0.93;;;20.40;56.20;;;;;;4513334;31;20473;-70
2021/12/08 12:49:32;;;;;;;2.85;0.60;;;20.40;55.30;;;;;;4511673;31;20221;-69
2021/12/08 12:52:00;;;;;;;2.97;0.77;;;20.40;55.30;;;;;;4512185;31;20237;-69
2021/12/08 12:54:28;;;;;;;3.22;0.80;;;20.40;55.20;;;;;;4510957;31;20636;-69
2021/12/08 12:56:56;;;;;;;2.97;0.85;;;20.40;55.10;;;;;;4512851;31;20250;-70
2021/12/08 12:59:25;;;;;;;3.95;0.70;;;20.50;55.00;;;;;;4512593;31;20178;-69
2021/12/08 13:02:24;;;;;;;2.75;0.80;;;20.50;54.90;;;;;;4511036;31;20537;-69
2021/12/08 13:05:00;;;;;;;2.35;0.80;;;20.50;54.80;;;;;;4512277;31;20221;-69
2021/12/08 13:07:29;;;;;;;1.80;0.60;;;20.50;54.70;;;;;;4512042;31;20125;-70
2021/12/08 13:10:10;;;;;;;4.25;0.65;;;20.50;54.70;;;;;;4511526;31;20120;-70
2021/12/08 13:12:35;;;;;;;3.78;0.60;;;20.60;54.70;;;;;;4513108;31;20136;-71
2021/12/08 13:15:25;;;;;;;1.85;0.50;;;20.60;54.70;;;;;;4510684;31;20174;-73
2021/12/08 13:18:09;;;;;;;1.55;0.70;;;20.60;55.60;;;;;;4516244;31;20268;-71
2021/12/08 13:20:38;;;;;;;4.05;0.60;;;20.50;54.70;;;;;;4514375;31;20147;-72
2021/12/08 13:23:07;;;;;;;2.00;0.77;;;20.60;54.70;;;;;;4513979;31;20143;-72
2021/12/08 13:28:26;;;;;;;3.72;0.80;;;20.60;54.60;;;;;;4514466;31;20662;-71
2021/12/08 13:31:19;;;;;;;1.98;0.70;;;20.60;54.50;;;;;;4515558;31;20143;-71
2021/12/08 13:33:50;;;;;;;1.35;0.60;;;20.60;54.50;;;;;;4516019;31;20097;-72
2021/12/08 13:36:23;;;;;;;2.22;0.70;;;20.60;54.50;;;;;;4514586;31;20120;-73
2021/12/08 13:38:57;;;;;;;3.13;0.70;;;20.60;54.50;;;;;;4515811;31;20132;-73
2021/12/08 13:41:26;;;;;;;2.45;0.63;;;20.60;54.50;;;;;;4514441;31;20135;-72
2021/12/08 13:43:52;;;;;;;1.88;0.77;;;20.60;54.50;;;;;;4514298;31;20213;-73
2021/12/08 13:46:41;;;;;;;1.65;0.88;;;20.60;54.50;;;;;;4500951;31;20283;-72
2021/12/08 13:49:16;;;;;;;1.98;0.60;;;20.70;54.50;;;;;;4504967;31;20196;-72
2021/12/08 13:52:07;;;;;;;1.30;0.47;;;20.60;54.50;;;;;;4514484;31;20143;-71
2021/12/08 13:54:38;;;;;;;2.22;0.75;;;20.60;54.50;;;;;;4513456;31;20267;-72
2021/12/08 13:57:41;;;;;;;2.05;0.63;;;20.60;54.40;;;;;;4513844;31;20713;-72
2021/12/08 14:00:16;;;;;;;2.55;0.77;;;20.60;54.40;;;;;;4515715;31;20142;-71
2021/12/08 14:02:47;;;;;;;3.10;0.80;;;20.70;54.50;;;;;;4514102;31;20142;-71
2021/12/08 14:05:30;;;;;;;3.20;0.80;;;20.70;55.40;;;;;;4515264;31;20142;-71